Detalii statie BONGA [00001D00]

Toti senzorii

Date Temperatura solului [C]Precipitatii [mm]Voltaj baterie [mV]Leaf Wetness [Min]HC Air temperature [C]HC Relative humidity [%]Punctul de roua [C]
medieminmaxsumaultimatimpmedieminmaxmediemediemin
2019-06-15 18:00:00 26.3 26 26.8 0 7324
2019-06-15 19:00:00 25.7 25.5 26.1 0 7324
2019-06-15 20:00:00 25.1 24.8 25.4 0 6982
2019-06-15 21:00:00 24.3 24 24.7 0 6942
2019-06-15 22:00:00 23.7 23.5 23.9 0 6932
2019-06-15 23:00:00 23.3 23.1 23.6 0 6922
2019-06-16 00:00:00 22.9 22.7 23.2 0 6922
2019-06-16 01:00:00 22.6 22.4 22.8 0 6914
2019-06-16 02:00:00 22.1 21.9 22.5 0 6914
2019-06-16 03:00:00 21.7 21.6 22 0 6904
2019-06-16 04:00:00 21.4 21.3 21.6 0 6904
2019-06-16 05:00:00 21.2 20.9 21.4 0 6932
2019-06-16 06:00:00 21.3 21.1 21.6 0 7020
2019-06-16 07:00:00 21.8 21.5 22.2 0 7080
2019-06-16 08:00:00 22.5 22.2 22.8 0 7098
2019-06-16 09:00:00 23 22.8 23.3 0 7080
2019-06-16 10:00:00 23.8 23.2 24.4 0 7070
2019-06-16 11:00:00 25.1 24.7 25.5 0 7314
2019-06-16 12:00:00 26 25.7 26.4 0 7314
2019-06-16 13:00:00 26.5 26.4 26.6 0 7324
2019-06-16 14:00:00 26.8 26.6 27 0 7324
2019-06-16 15:00:00 26.8 26.8 27 0 7324
2019-06-16 16:00:00 27.1 27 27.3 0 7324
2019-06-16 17:00:00 27.1 26.7 27.5 0 7332
2019-06-16 18:00:00 26.4 26.2 26.7 0 7324
2019-06-16 19:00:00 25.7 25.5 26 0 7332
2019-06-16 20:00:00 25.2 25 25.6 0 7040
2019-06-16 21:00:00 24.4 24 24.9 0 6942
2019-06-16 22:00:00 23.7 23.4 24 0 6932
2019-06-16 23:00:00 23.2 23 23.4 0 6932
2019-06-17 00:00:00 22.7 22.6 23 0 6922
2019-06-17 01:00:00 22.4 22.3 22.6 0 6914
2019-06-17 02:00:00 22.1 21.8 22.4 0 6914
2019-06-17 03:00:00 21.9 21.7 22.1 0 6914
2019-06-17 04:00:00 21.6 21.4 21.9 0 6904
2019-06-17 05:00:00 21.4 21.2 21.5 0 6932
2019-06-17 06:00:00 21.5 21.3 21.8 0 7040
2019-06-17 07:00:00 22.1 21.8 22.5 0 7108
2019-06-17 08:00:00 22.7 22.5 22.9 0 7138
2019-06-17 09:00:00 23.2 23 23.6 0 7148
2019-06-17 10:00:00 24 23.5 24.7 0 7324
2019-06-17 11:00:00 25.1 24.8 25.7 0 7324
2019-06-17 12:00:00 25.9 25.6 26.2 0 7324
2019-06-17 13:00:00 26.5 26.2 26.8 0 7324
2019-06-17 14:00:00 26.7 26.7 26.8 0 7324
2019-06-17 15:00:00 26.8 26.7 27 0 7332
2019-06-17 16:00:00 26.9 26.5 27.3 0 7332
2019-06-17 17:00:00 26 25.9 26.3 0 7332